Time;durP1;ratioP1;P1;durP2;ratioP2;P2;SDS_P1;SDS_P2;PMS_P1;PMS_P2;Temp;Humidity;BMP_temperature;BMP_pressure;BME280_temperature;BME280_humidity;BME280_pressure;Samples;Min_cycle;Max_cycle;Signal;HPM_P1;HPM_P2
2023/12/12 00:00:54;;;;;;;;;;;5.20;99.90;;;;;;5130069;27;19925;-62
2023/12/12 00:03:19;;;;;;;;;;;5.20;99.90;;;;;;5131193;27;20311;-62
2023/12/12 00:05:45;;;;;;;;;;;5.20;99.90;;;;;;5131822;27;20408;-62
2023/12/12 00:08:10;;;;;;;;;;;5.20;99.90;;;;;;5125558;27;19916;-62
2023/12/12 00:10:36;;;;;;;;;;;5.20;99.90;;;;;;5131526;27;19949;-62
2023/12/12 00:13:01;;;;;;;;;;;5.20;99.90;;;;;;5131121;27;19923;-61
2023/12/12 00:15:27;;;;;;;;;;;5.20;99.90;;;;;;5130603;27;19953;-62
2023/12/12 00:17:53;;;;;;;;;;;5.10;99.90;;;;;;5125616;27;19916;-61
2023/12/12 00:20:19;;;;;;;;;;;5.10;99.90;;;;;;5120550;28;20310;-61
2023/12/12 00:22:44;;;;;;;;;;;5.10;99.90;;;;;;5125692;27;19921;-62
2023/12/12 00:25:10;;;;;;;;;;;5.00;99.90;;;;;;5129313;27;19915;-61
2023/12/12 00:27:35;;;;;;;;;;;5.00;99.90;;;;;;5131309;27;19976;-62
2023/12/12 00:30:01;;;;;;;;;;;4.90;99.90;;;;;;5128824;27;19919;-62
2023/12/12 00:32:26;;;;;;;;;;;4.90;99.90;;;;;;5129657;27;19926;-62
2023/12/12 00:34:52;;;;;;;;;;;4.90;99.90;;;;;;5131021;27;19926;-61
2023/12/12 00:37:17;;;;;;;;;;;4.90;99.90;;;;;;5130667;27;19922;-62
2023/12/12 00:39:43;;;;;;;;;;;4.90;99.90;;;;;;5130990;27;19915;-62
2023/12/12 00:42:08;;;;;;;;;;;4.90;99.90;;;;;;5130232;27;19988;-61
2023/12/12 00:44:34;;;;;;;;;;;4.80;99.90;;;;;;5130405;27;19957;-62
2023/12/12 00:47:00;;;;;;;;;;;4.80;99.90;;;;;;5131031;27;20065;-62
2023/12/12 00:49:25;;;;;;;;;;;4.80;99.90;;;;;;5129241;27;19930;-61
2023/12/12 00:51:51;;;;;;;;;;;4.90;99.90;;;;;;5130090;27;19922;-61
2023/12/12 00:54:16;;;;;;;;;;;4.90;99.90;;;;;;5111393;28;19924;-62
2023/12/12 00:56:44;;;;;;;;;;;4.80;99.90;;;;;;5129436;28;20010;-61
2023/12/12 00:59:09;;;;;;;;;;;4.90;99.90;;;;;;5128715;28;19916;-61
2023/12/12 01:01:35;;;;;;;;;;;4.90;99.90;;;;;;5129278;28;20301;-62
2023/12/12 01:04:01;;;;;;;;;;;4.90;99.90;;;;;;5131664;27;19919;-62
2023/12/12 01:06:26;;;;;;;;;;;4.90;99.90;;;;;;5134425;27;20001;-62
2023/12/12 01:08:52;;;;;;;;;;;4.90;99.90;;;;;;5127576;27;19915;-62
2023/12/12 01:11:18;;;;;;;;;;;4.80;99.90;;;;;;5134485;27;20011;-62
2023/12/12 01:13:44;;;;;;;;;;;4.70;99.90;;;;;;5134189;27;19923;-62
2023/12/12 01:16:10;;;;;;;;;;;4.80;99.90;;;;;;5134586;27;20034;-61
2023/12/12 01:18:35;;;;;;;;;;;4.70;99.90;;;;;;5123286;27;20422;-61
2023/12/12 01:21:02;;;;;;;;;;;4.80;99.90;;;;;;5097794;28;19916;-62
2023/12/12 01:23:45;;;;;;;;;;;4.80;99.90;;;;;;5126452;27;20078;-61
2023/12/12 01:26:10;;;;;;;;;;;4.90;99.90;;;;;;5133732;27;19922;-61
2023/12/12 01:28:36;;;;;;;;;;;4.90;99.90;;;;;;5134753;27;20293;-62
2023/12/12 01:31:02;;;;;;;;;;;4.90;99.90;;;;;;5134619;27;19976;-62
2023/12/12 01:33:27;;;;;;;;;;;4.90;99.90;;;;;;5134241;27;21725;-62
2023/12/12 01:35:53;;;;;;;;;;;5.00;99.90;;;;;;5134399;27;20381;-62
2023/12/12 01:38:18;;;;;;;;;;;5.00;99.90;;;;;;5134051;27;19923;-62
2023/12/12 01:40:44;;;;;;;;;;;4.90;99.90;;;;;;5134340;27;19915;-62
2023/12/12 01:43:09;;;;;;;;;;;4.90;99.90;;;;;;5133924;27;20305;-62
2023/12/12 01:45:35;;;;;;;;;;;4.90;99.90;;;;;;5133080;27;19938;-62
2023/12/12 01:48:00;;;;;;;;;;;4.90;99.90;;;;;;5134207;27;19992;-61
2023/12/12 01:50:26;;;;;;;;;;;4.90;99.90;;;;;;5134037;27;19922;-62
2023/12/12 01:52:52;;;;;;;;;;;4.90;99.90;;;;;;5133015;27;20002;-61
2023/12/12 01:55:17;;;;;;;;;;;5.00;99.90;;;;;;5132709;27;19967;-61
2023/12/12 01:57:43;;;;;;;;;;;5.00;99.90;;;;;;5134221;27;20369;-61
2023/12/12 02:00:10;;;;;;;;;;;5.00;99.90;;;;;;5132040;27;19919;-62
2023/12/12 02:02:35;;;;;;;;;;;5.00;99.90;;;;;;5131824;27;20047;-62
2023/12/12 02:05:01;;;;;;;;;;;5.00;99.90;;;;;;5133892;27;19915;-61
2023/12/12 02:07:28;;;;;;;;;;;5.00;99.90;;;;;;5131291;27;19915;-62
2023/12/12 02:09:53;;;;;;;;;;;5.00;99.90;;;;;;5129114;27;19919;-61
2023/12/12 02:12:20;;;;;;;;;;;5.00;99.90;;;;;;5133006;27;19984;-62
2023/12/12 02:14:45;;;;;;;;;;;4.90;99.90;;;;;;5131813;27;20017;-62
2023/12/12 02:17:11;;;;;;;;;;;5.00;99.90;;;;;;5131858;27;20066;-62
2023/12/12 02:19:38;;;;;;;;;;;5.00;99.90;;;;;;5114685;27;19927;-61
2023/12/12 02:22:03;;;;;;;;;;;5.00;99.90;;;;;;5114442;27;20011;-62
2023/12/12 02:24:29;;;;;;;;;;;4.90;99.90;;;;;;5133369;27;20373;-62
2023/12/12 02:26:54;;;;;;;;;;;5.00;99.90;;;;;;5132267;27;19938;-61
2023/12/12 02:29:20;;;;;;;;;;;5.00;99.90;;;;;;5132810;27;19919;-62
2023/12/12 02:31:45;;;;;;;;;;;5.00;99.90;;;;;;5133742;27;19922;-61
2023/12/12 02:34:11;;;;;;;;;;;5.00;99.90;;;;;;5132972;27;19919;-61
2023/12/12 02:36:36;;;;;;;;;;;4.90;99.90;;;;;;5133407;27;20353;-61
2023/12/12 02:39:03;;;;;;;;;;;4.90;99.90;;;;;;5131849;27;19923;-61
2023/12/12 02:41:28;;;;;;;;;;;4.90;99.90;;;;;;5132920;27;20397;-62
2023/12/12 02:43:54;;;;;;;;;;;4.90;99.90;;;;;;5132420;27;19919;-61
2023/12/12 02:46:19;;;;;;;;;;;4.90;99.90;;;;;;5132781;27;19915;-61
2023/12/12 02:48:45;;;;;;;;;;;4.90;99.90;;;;;;5131774;27;20351;-61
2023/12/12 02:51:10;;;;;;;;;;;4.90;99.90;;;;;;5133020;27;19920;-61
2023/12/12 02:53:36;;;;;;;;;;;4.90;99.90;;;;;;5131452;27;20382;-62
2023/12/12 02:56:01;;;;;;;;;;;4.80;99.90;;;;;;5132688;27;19919;-62
2023/12/12 02:58:27;;;;;;;;;;;4.80;99.90;;;;;;5132099;27;19955;-62
2023/12/12 03:00:52;;;;;;;;;;;4.90;99.90;;;;;;5131478;27;19964;-62
2023/12/12 03:03:18;;;;;;;;;;;4.90;99.90;;;;;;5132247;27;20373;-64
2023/12/12 03:05:43;;;;;;;;;;;5.00;99.90;;;;;;5131784;27;20285;-62
2023/12/12 03:08:09;;;;;;;;;;;5.00;99.90;;;;;;5125313;27;19916;-62
2023/12/12 03:10:34;;;;;;;;;;;5.00;99.90;;;;;;5132628;27;19937;-61
2023/12/12 03:13:00;;;;;;;;;;;5.10;99.90;;;;;;5131861;27;19923;-62
2023/12/12 03:15:25;;;;;;;;;;;5.10;99.90;;;;;;5131902;27;20371;-62
2023/12/12 03:17:51;;;;;;;;;;;5.10;99.90;;;;;;5124770;27;19920;-62
2023/12/12 03:20:16;;;;;;;;;;;5.10;99.90;;;;;;5114466;27;19954;-62
2023/12/12 03:22:42;;;;;;;;;;;5.10;99.90;;;;;;5124233;27;19925;-62
2023/12/12 03:25:08;;;;;;;;;;;5.10;99.90;;;;;;5133032;27;19983;-62
2023/12/12 03:27:33;;;;;;;;;;;5.20;99.90;;;;;;5117114;27;19922;-62
2023/12/12 03:29:59;;;;;;;;;;;5.20;99.90;;;;;;5132402;27;19915;-62
2023/12/12 03:32:24;;;;;;;;;;;5.30;99.90;;;;;;5129889;27;19921;-62
2023/12/12 03:34:50;;;;;;;;;;;5.30;99.90;;;;;;5132015;27;19942;-61
2023/12/12 03:37:15;;;;;;;;;;;5.30;99.90;;;;;;5131729;27;19915;-62
2023/12/12 03:39:41;;;;;;;;;;;5.30;99.90;;;;;;5118079;27;20326;-62
2023/12/12 03:42:06;;;;;;;;;;;5.30;99.90;;;;;;5110061;27;19982;-62
2023/12/12 03:44:32;;;;;;;;;;;5.30;99.90;;;;;;5115562;27;20015;-62
2023/12/12 03:46:57;;;;;;;;;;;5.30;99.90;;;;;;5122514;27;19994;-62
2023/12/12 03:49:23;;;;;;;;;;;5.30;99.90;;;;;;5130137;27;19945;-62
2023/12/12 03:51:48;;;;;;;;;;;5.30;99.90;;;;;;5126588;27;19916;-61
2023/12/12 03:54:14;;;;;;;;;;;5.40;99.90;;;;;;5131172;27;19920;-62
2023/12/12 03:56:40;;;;;;;;;;;5.40;99.90;;;;;;5128800;27;19919;-62
2023/12/12 03:59:05;;;;;;;;;;;5.40;99.90;;;;;;5131781;27;19922;-62
2023/12/12 04:01:31;;;;;;;;;;;5.40;99.90;;;;;;5111328;27;20293;-62
2023/12/12 04:03:57;;;;;;;;;;;5.40;99.90;;;;;;5126275;27;20043;-61
2023/12/12 04:06:22;;;;;;;;;;;5.40;99.90;;;;;;5131016;27;19962;-62
2023/12/12 04:08:49;;;;;;;;;;;5.40;99.90;;;;;;5131618;27;20002;-62
2023/12/12 04:11:14;;;;;;;;;;;5.50;99.90;;;;;;5129677;27;20377;-61
2023/12/12 04:13:40;;;;;;;;;;;5.40;99.90;;;;;;5131269;27;19960;-62
2023/12/12 04:16:05;;;;;;;;;;;5.40;99.90;;;;;;5131131;27;19919;-62
2023/12/12 04:18:31;;;;;;;;;;;5.50;99.90;;;;;;5130796;27;19951;-61
2023/12/12 04:20:56;;;;;;;;;;;5.50;99.90;;;;;;5131418;27;20052;-62
2023/12/12 04:23:22;;;;;;;;;;;5.50;99.90;;;;;;5129493;27;19923;-62
2023/12/12 04:25:47;;;;;;;;;;;5.50;99.90;;;;;;5131173;27;20007;-61
2023/12/12 04:28:13;;;;;;;;;;;5.50;99.90;;;;;;5130899;27;19937;-61
2023/12/12 04:30:38;;;;;;;;;;;5.50;99.90;;;;;;5129949;27;19916;-61
2023/12/12 04:33:04;;;;;;;;;;;5.50;99.90;;;;;;5130345;27;19916;-62
2023/12/12 04:35:29;;;;;;;;;;;5.50;99.90;;;;;;5130991;27;19919;-61
2023/12/12 04:37:55;;;;;;;;;;;5.60;99.90;;;;;;5130637;27;20005;-62
2023/12/12 04:40:20;;;;;;;;;;;5.60;99.90;;;;;;5129199;27;20378;-62
2023/12/12 04:42:46;;;;;;;;;;;5.60;99.90;;;;;;5130836;27;19923;-61
2023/12/12 04:45:11;;;;;;;;;;;5.60;99.90;;;;;;5129400;27;20040;-61
2023/12/12 04:47:37;;;;;;;;;;;5.60;99.90;;;;;;5130833;27;20045;-61
2023/12/12 04:50:03;;;;;;;;;;;5.60;99.90;;;;;;5130907;27;20005;-61
2023/12/12 04:52:28;;;;;;;;;;;5.60;99.90;;;;;;5127859;27;19923;-62
2023/12/12 04:54:54;;;;;;;;;;;5.60;99.90;;;;;;5131889;27;19925;-61
2023/12/12 04:57:19;;;;;;;;;;;5.60;99.90;;;;;;5130861;28;20274;-61
2023/12/12 04:59:45;;;;;;;;;;;5.70;99.90;;;;;;5131260;28;19962;-61
2023/12/12 05:02:10;;;;;;;;;;;5.60;99.90;;;;;;5128521;28;19922;-61
2023/12/12 05:04:37;;;;;;;;;;;5.60;99.90;;;;;;5130429;28;20522;-61
2023/12/12 05:07:03;;;;;;;;;;;5.60;99.90;;;;;;5130840;27;20205;-62
2023/12/12 05:09:28;;;;;;;;;;;5.60;99.90;;;;;;5129191;28;19923;-61
2023/12/12 05:11:54;;;;;;;;;;;5.50;99.90;;;;;;5126564;28;19961;-61
2023/12/12 05:14:19;;;;;;;;;;;5.50;99.90;;;;;;5119626;28;19919;-61
2023/12/12 05:16:45;;;;;;;;;;;5.40;99.90;;;;;;5128967;28;20029;-61
2023/12/12 05:19:10;;;;;;;;;;;5.30;99.90;;;;;;5127308;28;19966;-61
2023/12/12 05:21:36;;;;;;;;;;;5.30;99.90;;;;;;5130650;28;19915;-61
2023/12/12 05:24:02;;;;;;;;;;;5.30;99.90;;;;;;5129185;28;20297;-61
2023/12/12 05:26:27;;;;;;;;;;;5.30;99.90;;;;;;5128767;28;20335;-61
2023/12/12 05:28:53;;;;;;;;;;;5.30;99.90;;;;;;5130530;28;19915;-61
2023/12/12 05:31:19;;;;;;;;;;;5.30;99.90;;;;;;5128537;27;19915;-61
2023/12/12 05:33:46;;;;;;;;;;;5.30;99.90;;;;;;5130406;27;20366;-62
2023/12/12 05:36:12;;;;;;;;;;;5.30;99.90;;;;;;5128869;28;20002;-60
2023/12/12 05:38:37;;;;;;;;;;;5.20;99.90;;;;;;5130582;28;20010;-61
2023/12/12 05:41:03;;;;;;;;;;;5.20;99.90;;;;;;5130185;28;19915;-62
2023/12/12 05:43:28;;;;;;;;;;;5.20;99.90;;;;;;5130261;28;19923;-62
2023/12/12 05:45:54;;;;;;;;;;;5.30;99.90;;;;;;5124463;28;19978;-60
2023/12/12 05:48:19;;;;;;;;;;;5.30;99.90;;;;;;5126611;28;19922;-61
2023/12/12 05:50:45;;;;;;;;;;;5.30;99.90;;;;;;5121511;27;20331;-61
2023/12/12 05:53:10;;;;;;;;;;;5.30;99.90;;;;;;5129469;27;19966;-61
2023/12/12 05:55:36;;;;;;;;;;;5.40;99.90;;;;;;5120326;27;20150;-61
2023/12/12 05:58:01;;;;;;;;;;;5.40;99.90;;;;;;5130820;27;19916;-61
2023/12/12 06:00:27;;;;;;;;;;;5.40;99.90;;;;;;5123111;27;19919;-61
2023/12/12 06:02:54;;;;;;;;;;;5.50;99.90;;;;;;5127928;27;20384;-61
2023/12/12 06:05:20;;;;;;;;;;;5.50;99.90;;;;;;5119311;27;19916;-61
2023/12/12 06:07:45;;;;;;;;;;;5.60;99.90;;;;;;5127601;27;19941;-61
2023/12/12 06:10:11;;;;;;;;;;;5.60;99.90;;;;;;5131979;27;19916;-61
2023/12/12 06:12:37;;;;;;;;;;;5.70;99.90;;;;;;5127808;27;19919;-61
2023/12/12 06:15:03;;;;;;;;;;;5.70;99.90;;;;;;5133536;27;20416;-62
2023/12/12 06:17:28;;;;;;;;;;;5.80;99.90;;;;;;5133340;27;19923;-62
2023/12/12 06:19:54;;;;;;;;;;;5.90;99.90;;;;;;5132657;27;19915;-62
2023/12/12 06:22:19;;;;;;;;;;;5.90;99.90;;;;;;5132880;27;19915;-62
2023/12/12 06:24:45;;;;;;;;;;;6.00;99.90;;;;;;5128782;27;20654;-62
2023/12/12 06:27:11;;;;;;;;;;;6.10;99.90;;;;;;5132939;27;19922;-62
2023/12/12 06:29:36;;;;;;;;;;;6.10;99.90;;;;;;5133715;27;19915;-62
2023/12/12 06:32:02;;;;;;;;;;;6.20;99.90;;;;;;5133189;27;19922;-62
2023/12/12 06:34:27;;;;;;;;;;;6.20;99.90;;;;;;5132879;27;19930;-62
2023/12/12 06:36:53;;;;;;;;;;;6.30;99.90;;;;;;5114132;27;20282;-62
2023/12/12 06:39:19;;;;;;;;;;;6.30;99.90;;;;;;5132543;27;20377;-62
2023/12/12 06:41:44;;;;;;;;;;;6.30;99.90;;;;;;5131735;27;19915;-62
2023/12/12 06:44:10;;;;;;;;;;;6.30;99.90;;;;;;5132672;27;20414;-62
2023/12/12 06:46:36;;;;;;;;;;;6.40;99.90;;;;;;5133069;27;20339;-63
2023/12/12 06:49:03;;;;;;;;;;;6.40;99.90;;;;;;5131811;27;19915;-62
2023/12/12 06:51:28;;;;;;;;;;;6.30;99.90;;;;;;5131478;27;20315;-62
2023/12/12 06:53:54;;;;;;;;;;;6.30;99.90;;;;;;5132898;27;19919;-62
2023/12/12 06:56:20;;;;;;;;;;;6.30;99.90;;;;;;5132929;27;19915;-62
2023/12/12 06:58:46;;;;;;;;;;;6.30;99.90;;;;;;5133019;27;20308;-62
2023/12/12 07:01:12;;;;;;;;;;;6.30;99.90;;;;;;5131675;27;19915;-62
2023/12/12 07:03:38;;;;;;;;;;;6.20;99.90;;;;;;5132423;27;19922;-62
2023/12/12 07:06:04;;;;;;;;;;;6.20;99.90;;;;;;5127600;27;19986;-62
2023/12/12 07:08:29;;;;;;;;;;;6.20;99.90;;;;;;5121894;27;19926;-62
2023/12/12 07:10:55;;;;;;;;;;;6.20;99.90;;;;;;5104938;27;19915;-62
2023/12/12 07:13:21;;;;;;;;;;;6.20;99.90;;;;;;5112786;27;19915;-62
2023/12/12 07:15:46;;;;;;;;;;;6.20;99.90;;;;;;5107336;27;19919;-62
2023/12/12 07:18:14;;;;;;;;;;;6.10;99.90;;;;;;5112844;27;19923;-62
2023/12/12 07:20:39;;;;;;;;;;;6.10;99.90;;;;;;5125291;27;20389;-62
2023/12/12 07:23:05;;;;;;;;;;;6.10;99.90;;;;;;5131625;27;19927;-62
2023/12/12 07:25:31;;;;;;;;;;;6.10;99.90;;;;;;5113627;27;19915;-62
2023/12/12 07:27:56;;;;;;;;;;;6.10;99.90;;;;;;5132171;27;19989;-62
2023/12/12 07:30:22;;;;;;;;;;;6.00;99.90;;;;;;5130724;27;20052;-62
2023/12/12 07:32:47;;;;;;;;;;;6.00;99.90;;;;;;5132302;27;19915;-62
2023/12/12 07:35:13;;;;;;;;;;;6.00;99.90;;;;;;5131495;27;19923;-61
2023/12/12 07:37:38;;;;;;;;;;;6.00;99.90;;;;;;5131910;27;20385;-61
2023/12/12 07:40:04;;;;;;;;;;;5.90;99.90;;;;;;5131916;27;19923;-61
2023/12/12 07:42:30;;;;;;;;;;;5.90;99.90;;;;;;5131682;27;19916;-62
2023/12/12 07:44:56;;;;;;;;;;;5.90;99.90;;;;;;5132086;27;19916;-61
2023/12/12 07:47:22;;;;;;;;;;;5.80;99.90;;;;;;5131586;27;20292;-61
2023/12/12 07:49:47;;;;;;;;;;;5.80;99.90;;;;;;5131816;27;20088;-61
2023/12/12 07:52:13;;;;;;;;;;;5.80;99.90;;;;;;5129714;27;19919;-62
2023/12/12 07:54:38;;;;;;;;;;;5.80;99.90;;;;;;5132983;27;19970;-62
2023/12/12 07:57:05;;;;;;;;;;;5.80;99.90;;;;;;5130839;27;20342;-62
2023/12/12 07:59:30;;;;;;;;;;;5.80;99.90;;;;;;5130303;27;19915;-61
2023/12/12 08:01:56;;;;;;;;;;;5.90;99.90;;;;;;5131375;27;20007;-62
2023/12/12 08:04:21;;;;;;;;;;;6.00;99.90;;;;;;5130757;27;20335;-61
2023/12/12 08:06:47;;;;;;;;;;;6.20;99.90;;;;;;5131602;27;19930;-61
2023/12/12 08:09:12;;;;;;;;;;;6.30;99.90;;;;;;5131235;27;19915;-62
2023/12/12 08:11:39;;;;;;;;;;;6.40;99.90;;;;;;5131578;27;20010;-62
2023/12/12 08:14:05;;;;;;;;;;;6.50;99.90;;;;;;5131277;27;19916;-62
2023/12/12 08:16:31;;;;;;;;;;;6.70;99.90;;;;;;5129927;27;19915;-62
2023/12/12 08:18:56;;;;;;;;;;;6.80;99.90;;;;;;5112157;27;19919;-62
2023/12/12 08:21:22;;;;;;;;;;;6.90;99.90;;;;;;5108574;27;19967;-62
2023/12/12 08:23:48;;;;;;;;;;;7.00;99.90;;;;;;5112278;27;19916;-63
2023/12/12 08:26:14;;;;;;;;;;;7.00;99.90;;;;;;5120246;27;19915;-63
2023/12/12 08:28:40;;;;;;;;;;;6.90;99.90;;;;;;5127495;27;19915;-63
2023/12/12 08:31:05;;;;;;;;;;;6.90;99.90;;;;;;5131005;27;19922;-63
2023/12/12 08:33:31;;;;;;;;;;;6.70;99.90;;;;;;5127341;27;19936;-63
2023/12/12 08:35:57;;;;;;;;;;;6.50;99.90;;;;;;5129880;27;19931;-63
2023/12/12 08:38:23;;;;;;;;;;;6.30;99.90;;;;;;5127928;27;19933;-64
2023/12/12 08:40:48;;;;;;;;;;;6.30;99.90;;;;;;5131128;27;19915;-64
2023/12/12 08:43:14;;;;;;;;;;;6.10;99.90;;;;;;5128396;27;20081;-63
2023/12/12 08:45:39;;;;;;;;;;;6.10;99.90;;;;;;5130292;27;20377;-64
2023/12/12 08:48:05;;;;;;;;;;;6.00;99.90;;;;;;5130473;27;19975;-64
2023/12/12 08:50:31;;;;;;;;;;;5.90;99.90;;;;;;5130170;27;20304;-63
2023/12/12 08:52:57;;;;;;;;;;;5.80;99.90;;;;;;5110127;27;19958;-62
2023/12/12 08:55:23;;;;;;;;;;;5.80;99.90;;;;;;5112366;28;19935;-62
2023/12/12 08:57:48;;;;;;;;;;;5.70;99.90;;;;;;5109518;28;19915;-62
2023/12/12 09:00:14;;;;;;;;;;;5.70;99.90;;;;;;5102407;28;19916;-63
2023/12/12 09:02:40;;;;;;;;;;;5.60;99.90;;;;;;5100647;28;20515;-63
2023/12/12 09:05:06;;;;;;;;;;;5.60;99.90;;;;;;5099591;28;19916;-62
2023/12/12 09:07:33;;;;;;;;;;;5.50;99.90;;;;;;5107229;28;20417;-62
2023/12/12 09:10:05;;;;;;;;;;;5.50;99.90;;;;;;5111847;28;19942;-62
2023/12/12 09:12:31;;;;;;;;;;;5.50;99.90;;;;;;5113809;28;19954;-62
2023/12/12 09:14:56;;;;;;;;;;;5.50;99.90;;;;;;5113723;28;19967;-62
2023/12/12 09:17:22;;;;;;;;;;;5.50;99.90;;;;;;5117695;28;19922;-62
2023/12/12 09:19:47;;;;;;;;;;;5.50;99.90;;;;;;5114933;28;20323;-62
2023/12/12 09:22:13;;;;;;;;;;;5.50;99.90;;;;;;5117569;28;20493;-62
2023/12/12 09:24:38;;;;;;;;;;;5.50;99.90;;;;;;5122300;27;20573;-62
2023/12/12 09:27:04;;;;;;;;;;;5.60;99.90;;;;;;5129902;27;20019;-62
2023/12/12 09:29:30;;;;;;;;;;;5.60;99.90;;;;;;5125687;27;19916;-62
2023/12/12 09:31:56;;;;;;;;;;;5.50;99.90;;;;;;5129996;27;20010;-62
2023/12/12 09:34:23;;;;;;;;;;;5.50;99.90;;;;;;5122294;27;19927;-62
2023/12/12 09:36:49;;;;;;;;;;;5.60;99.90;;;;;;5129875;27;19915;-62
2023/12/12 09:39:15;;;;;;;;;;;5.60;99.90;;;;;;5126379;27;19916;-62
2023/12/12 09:41:44;;;;;;;;;;;5.60;99.90;;;;;;5130246;27;20396;-62
2023/12/12 09:44:10;;;;;;;;;;;5.60;99.90;;;;;;5126974;27;20334;-62
2023/12/12 09:46:35;;;;;;;;;;;5.50;99.90;;;;;;5120487;27;19973;-62
2023/12/12 09:49:02;;;;;;;;;;;5.60;99.90;;;;;;5116029;27;20010;-62
2023/12/12 09:51:27;;;;;;;;;;;5.60;99.90;;;;;;5113650;27;19924;-62
2023/12/12 09:53:54;;;;;;;;;;;5.50;99.90;;;;;;5105788;27;19964;-63
2023/12/12 09:56:20;;;;;;;;;;;5.60;99.90;;;;;;5116263;27;19915;-63
2023/12/12 09:58:47;;;;;;;;;;;5.50;99.90;;;;;;5110621;27;20018;-62
2023/12/12 10:01:13;;;;;;;;;;;5.50;99.90;;;;;;5110016;27;20373;-62
2023/12/12 10:03:39;;;;;;;;;;;5.60;99.90;;;;;;5109176;27;19923;-62
2023/12/12 10:06:08;;;;;;;;;;;5.60;99.90;;;;;;5110769;27;19921;-62
2023/12/12 10:08:35;;;;;;;;;;;5.60;99.90;;;;;;5112471;27;19923;-62
2023/12/12 10:11:01;;;;;;;;;;;5.60;99.90;;;;;;5109540;27;20002;-62
2023/12/12 10:13:27;;;;;;;;;;;5.70;99.90;;;;;;5111130;27;19946;-62
2023/12/12 10:15:52;;;;;;;;;;;5.70;99.90;;;;;;5109888;27;19919;-62
2023/12/12 10:18:20;;;;;;;;;;;5.70;99.90;;;;;;5112651;27;19924;-63
2023/12/12 10:20:46;;;;;;;;;;;5.70;99.90;;;;;;5111799;27;19947;-62
2023/12/12 10:23:12;;;;;;;;;;;5.70;99.90;;;;;;5113149;27;19974;-62
2023/12/12 10:25:45;;;;;;;;;;;5.70;99.90;;;;;;5114444;27;19919;-62
2023/12/12 10:28:11;;;;;;;;;;;5.80;99.90;;;;;;5110087;27;20400;-62
2023/12/12 10:30:36;;;;;;;;;;;5.80;99.90;;;;;;5112878;27;19919;-62
2023/12/12 10:33:11;;;;;;;;;;;5.80;99.90;;;;;;5112567;27;20247;-62
2023/12/12 10:35:42;;;;;;;;;;;5.90;99.90;;;;;;5111517;27;19919;-62
2023/12/12 10:38:09;;;;;;;;;;;5.90;99.90;;;;;;5110098;27;19923;-62
2023/12/12 10:40:35;;;;;;;;;;;5.90;99.90;;;;;;5106407;27;19923;-62
2023/12/12 10:43:01;;;;;;;;;;;6.00;99.90;;;;;;5107172;27;19971;-61
2023/12/12 10:45:28;;;;;;;;;;;6.00;99.90;;;;;;5107430;27;19994;-62
2023/12/12 10:47:55;;;;;;;;;;;6.10;99.90;;;;;;5106548;27;19922;-62
2023/12/12 10:50:21;;;;;;;;;;;6.10;99.90;;;;;;5109257;27;20417;-62
2023/12/12 10:52:52;;;;;;;;;;;6.20;99.90;;;;;;5109622;27;20218;-61
2023/12/12 10:55:19;;;;;;;;;;;6.20;99.90;;;;;;5109404;27;20006;-62
2023/12/12 10:57:45;;;;;;;;;;;6.30;99.90;;;;;;5106149;27;20090;-62
2023/12/12 11:00:11;;;;;;;;;;;6.30;99.90;;;;;;5102686;27;20275;-63
2023/12/12 11:02:44;;;;;;;;;;;6.30;99.90;;;;;;5105827;27;19987;-61
2023/12/12 11:05:10;;;;;;;;;;;6.40;99.90;;;;;;5103320;27;19916;-62
2023/12/12 11:07:36;;;;;;;;;;;6.40;99.90;;;;;;5109853;27;19920;-62
2023/12/12 11:10:11;;;;;;;;;;;6.50;99.90;;;;;;5100504;27;19965;-62
2023/12/12 11:12:39;;;;;;;;;;;6.50;99.90;;;;;;5100022;27;19920;-61
2023/12/12 11:15:06;;;;;;;;;;;6.50;99.90;;;;;;5095459;27;20309;-62
2023/12/12 11:17:32;;;;;;;;;;;6.60;99.90;;;;;;5108315;27;19927;-63
2023/12/12 11:19:58;;;;;;;;;;;6.60;99.90;;;;;;5083327;28;19930;-61
2023/12/12 11:22:43;;;;;;;;;;;6.60;99.90;;;;;;5107774;27;19924;-61
2023/12/12 11:25:08;;;;;;;;;;;6.70;99.90;;;;;;5102590;27;20675;-60
2023/12/12 11:27:36;;;;;;;;;;;6.70;99.90;;;;;;5106326;27;20010;-60
2023/12/12 11:30:01;;;;;;;;;;;6.70;99.90;;;;;;5105222;27;19920;-61
2023/12/12 11:32:27;;;;;;;;;;;6.70;99.90;;;;;;5104015;27;20151;-61
2023/12/12 11:34:52;;;;;;;;;;;6.70;99.90;;;;;;5105481;27;20203;-61
2023/12/12 11:37:18;;;;;;;;;;;6.60;99.90;;;;;;5109960;27;20423;-61
2023/12/12 11:39:52;;;;;;;;;;;6.60;99.90;;;;;;5108987;27;20072;-61
2023/12/12 11:42:21;;;;;;;;;;;6.60;99.90;;;;;;5112928;27;19920;-61
2023/12/12 11:44:49;;;;;;;;;;;6.60;99.90;;;;;;5108389;27;20289;-60
2023/12/12 11:47:41;;;;;;;;;;;6.70;99.90;;;;;;5110926;27;19968;-61
2023/12/12 11:50:14;;;;;;;;;;;6.70;99.90;;;;;;5105713;27;19915;-61
2023/12/12 11:52:40;;;;;;;;;;;6.70;99.90;;;;;;5102696;27;19963;-61
2023/12/12 11:55:06;;;;;;;;;;;6.70;99.90;;;;;;5102629;27;19974;-62
2023/12/12 11:57:32;;;;;;;;;;;6.70;99.90;;;;;;5114828;27;19993;-61
2023/12/12 12:00:01;;;;;;;;;;;6.70;99.90;;;;;;5118101;27;20025;-61
2023/12/12 12:02:27;;;;;;;;;;;6.80;99.90;;;;;;5121386;27;19919;-60
2023/12/12 12:04:52;;;;;;;;;;;6.80;99.90;;;;;;5107672;27;20007;-60
2023/12/12 12:07:19;;;;;;;;;;;6.80;99.90;;;;;;5113185;27;19915;-60
2023/12/12 12:09:47;;;;;;;;;;;6.80;99.90;;;;;;5121527;27;20216;-60
2023/12/12 12:12:13;;;;;;;;;;;6.80;99.90;;;;;;5115806;27;20026;-61
2023/12/12 12:14:39;;;;;;;;;;;6.90;99.90;;;;;;5117698;27;19927;-61
2023/12/12 12:17:05;;;;;;;;;;;6.90;99.90;;;;;;5106242;27;19915;-60
2023/12/12 12:19:39;;;;;;;;;;;6.90;99.90;;;;;;5110852;27;19972;-61
2023/12/12 12:22:06;;;;;;;;;;;7.00;99.90;;;;;;5114978;27;19919;-62
2023/12/12 12:24:32;;;;;;;;;;;7.00;99.90;;;;;;5120094;27;20309;-61
2023/12/12 12:26:58;;;;;;;;;;;7.00;99.90;;;;;;5112649;27;19977;-61
2023/12/12 12:29:25;;;;;;;;;;;7.00;99.90;;;;;;5119211;27;20051;-61
2023/12/12 12:31:53;;;;;;;;;;;7.00;99.90;;;;;;5121088;27;19938;-62
2023/12/12 12:34:22;;;;;;;;;;;7.10;99.90;;;;;;5119467;27;19915;-62
2023/12/12 12:36:48;;;;;;;;;;;7.10;99.90;;;;;;5122903;27;19919;-61
2023/12/12 12:39:14;;;;;;;;;;;7.10;99.90;;;;;;5118861;27;20194;-61
2023/12/12 12:41:43;;;;;;;;;;;7.10;99.90;;;;;;5118700;27;19915;-60
2023/12/12 12:44:08;;;;;;;;;;;7.10;99.90;;;;;;5113535;27;19955;-61
2023/12/12 12:46:34;;;;;;;;;;;7.10;99.90;;;;;;5118880;27;19962;-61
2023/12/12 12:48:59;;;;;;;;;;;7.20;99.90;;;;;;5118848;27;19915;-61
2023/12/12 12:51:25;;;;;;;;;;;7.20;99.90;;;;;;5111726;27;20177;-61
2023/12/12 12:53:50;;;;;;;;;;;7.20;99.90;;;;;;5110570;27;19926;-61
2023/12/12 12:56:18;;;;;;;;;;;7.20;99.90;;;;;;5108669;27;19998;-62
2023/12/12 12:58:43;;;;;;;;;;;7.20;99.90;;;;;;5116570;27;20446;-61
2023/12/12 13:01:09;;;;;;;;;;;7.20;99.90;;;;;;5106427;28;20177;-62
2023/12/12 13:03:34;;;;;;;;;;;7.20;99.90;;;;;;5108523;28;19962;-61
2023/12/12 13:06:00;;;;;;;;;;;7.20;99.90;;;;;;5114116;28;20382;-60
2023/12/12 13:08:26;;;;;;;;;;;7.30;99.90;;;;;;5107577;28;19927;-61
2023/12/12 13:10:51;;;;;;;;;;;7.20;99.90;;;;;;5105208;28;20357;-61
2023/12/12 13:13:20;;;;;;;;;;;7.30;99.90;;;;;;5108449;28;20470;-61
2023/12/12 13:15:45;;;;;;;;;;;7.30;99.90;;;;;;5109538;28;20405;-60
2023/12/12 13:18:11;;;;;;;;;;;7.40;99.90;;;;;;5101400;28;19916;-61
2023/12/12 13:20:36;;;;;;;;;;;7.40;99.90;;;;;;5104178;28;19916;-61
2023/12/12 13:23:02;;;;;;;;;;;7.40;99.90;;;;;;5107369;28;19915;-61
2023/12/12 13:25:27;;;;;;;;;;;7.40;99.90;;;;;;5109962;28;19926;-60
2023/12/12 13:27:53;;;;;;;;;;;7.40;99.90;;;;;;5108382;28;19915;-62
2023/12/12 13:30:18;;;;;;;;;;;7.40;99.90;;;;;;5110562;28;20154;-60
2023/12/12 13:32:44;;;;;;;;;;;7.40;99.90;;;;;;5106194;28;19946;-61
2023/12/12 13:35:10;;;;;;;;;;;7.40;99.90;;;;;;5107364;28;19964;-61
2023/12/12 13:37:37;;;;;;;;;;;7.40;99.90;;;;;;5110570;27;20437;-61
2023/12/12 13:40:03;;;;;;;;;;;7.40;99.90;;;;;;5119415;27;19942;-60
2023/12/12 13:42:28;;;;;;;;;;;7.40;99.90;;;;;;5109320;27;20389;-60
2023/12/12 13:44:55;;;;;;;;;;;7.50;99.90;;;;;;5102252;28;19916;-60
2023/12/12 13:47:21;;;;;;;;;;;7.50;99.90;;;;;;5104756;28;20282;-60
2023/12/12 13:49:46;;;;;;;;;;;7.50;99.90;;;;;;5104534;28;20053;-61
2023/12/12 13:52:12;;;;;;;;;;;7.50;99.90;;;;;;5106911;28;19915;-60
2023/12/12 13:54:37;;;;;;;;;;;7.50;99.90;;;;;;5105596;28;20008;-61
2023/12/12 13:57:03;;;;;;;;;;;7.50;99.90;;;;;;5107739;28;20310;-60
2023/12/12 13:59:28;;;;;;;;;;;7.50;99.90;;;;;;5114741;28;19919;-61
2023/12/12 14:01:54;;;;;;;;;;;7.50;99.90;;;;;;5106266;28;20186;-61
2023/12/12 14:04:19;;;;;;;;;;;7.50;99.90;;;;;;5109224;28;19922;-61
2023/12/12 14:06:45;;;;;;;;;;;7.50;99.90;;;;;;5105839;28;19915;-61
2023/12/12 14:09:11;;;;;;;;;;;7.50;99.90;;;;;;5109143;28;19915;-61
2023/12/12 14:11:36;;;;;;;;;;;7.50;99.90;;;;;;5111027;27;20005;-61
2023/12/12 14:14:02;;;;;;;;;;;7.50;99.90;;;;;;5111382;27;20455;-61
2023/12/12 14:16:27;;;;;;;;;;;7.50;99.90;;;;;;5113473;27;20032;-61
2023/12/12 14:18:53;;;;;;;;;;;7.50;99.90;;;;;;5110782;27;19915;-61
2023/12/12 14:21:18;;;;;;;;;;;7.50;99.90;;;;;;5111460;27;19923;-61
2023/12/12 14:23:44;;;;;;;;;;;7.50;99.90;;;;;;5106258;27;19915;-61